createdAt,value
2019-03-26T00:00:50.137Z,82.80
2019-03-26T00:01:50.216Z,82.70
2019-03-26T00:02:50.116Z,82.80
2019-03-26T00:03:50.160Z,82.18
2019-03-26T00:04:50.088Z,82.70
2019-03-26T00:05:50.102Z,82.70
2019-03-26T00:06:50.066Z,82.29
2019-03-26T00:07:50.055Z,82.08
2019-03-26T00:08:50.057Z,82.50
2019-03-26T00:09:50.052Z,82.39
2019-03-26T00:10:50.019Z,82.39
2019-03-26T00:11:50.030Z,82.56
2019-03-26T00:12:50.006Z,82.50
2019-03-26T00:13:49.992Z,82.29
2019-03-26T00:14:49.981Z,82.76
2019-03-26T00:15:49.973Z,82.80
2019-03-26T00:16:49.980Z,82.56
2019-03-26T00:17:49.942Z,82.25
2019-03-26T00:18:49.947Z,82.18
2019-03-26T00:19:49.921Z,82.50
2019-03-26T00:20:49.909Z,82.87
2019-03-26T00:21:49.950Z,82.66
2019-03-26T00:22:49.914Z,83.01
2019-03-26T00:23:49.906Z,82.66
2019-03-26T00:24:49.867Z,82.80
2019-03-26T00:25:49.910Z,82.35
2019-03-26T00:26:49.864Z,82.50
2019-03-26T00:27:49.834Z,82.66
2019-03-26T00:28:49.825Z,82.90
2019-03-26T00:29:49.814Z,82.08
2019-03-26T00:30:49.817Z,82.08
2019-03-26T00:31:49.816Z,82.50
2019-03-26T00:32:49.782Z,82.70
2019-03-26T00:33:49.769Z,82.60
2019-03-26T00:34:49.760Z,82.80
2019-03-26T00:35:49.748Z,82.18
2019-03-26T00:36:49.782Z,82.39
2019-03-26T00:37:49.745Z,82.70
2019-03-26T00:38:49.806Z,83.42
2019-03-26T00:39:49.736Z,82.80
2019-03-26T00:40:49.742Z,82.50
2019-03-26T00:41:49.733Z,82.50
2019-03-26T00:42:49.692Z,82.60
2019-03-26T00:43:49.705Z,82.60
2019-03-26T00:44:49.646Z,82.50
2019-03-26T00:45:49.662Z,82.50
2019-03-26T00:46:49.680Z,82.70
2019-03-26T00:47:49.617Z,82.39
2019-03-26T00:48:49.619Z,82.80
2019-03-26T00:49:49.623Z,82.70
2019-03-26T00:50:49.582Z,82.29
2019-03-26T00:51:49.698Z,82.70
2019-03-26T00:52:49.556Z,82.29
2019-03-26T00:53:49.547Z,82.60
2019-03-26T00:54:49.534Z,82.18
2019-03-26T00:55:49.524Z,83.42
2019-03-26T00:56:49.541Z,81.98
2019-03-26T00:57:49.524Z,82.70
2019-03-26T00:58:49.508Z,82.60
2019-03-26T00:59:49.509Z,82.80
2019-03-26T01:00:49.493Z,82.43
2019-03-26T01:01:49.455Z,82.08
2019-03-26T01:02:49.474Z,82.70
2019-03-26T01:03:49.436Z,82.70
2019-03-26T01:04:49.461Z,82.39
2019-03-26T01:05:49.412Z,82.18
2019-03-26T01:06:49.407Z,82.18
2019-03-26T01:07:49.414Z,81.87
2019-03-26T01:08:49.390Z,82.39
2019-03-26T01:09:49.374Z,82.08
2019-03-26T01:10:49.402Z,81.87
2019-03-26T01:11:49.355Z,82.43
2019-03-26T01:12:49.366Z,82.01
2019-03-26T01:13:49.329Z,82.18
2019-03-26T01:14:49.311Z,81.81
2019-03-26T01:15:49.307Z,81.81
2019-03-26T01:16:49.321Z,82.22
2019-03-26T01:17:49.279Z,81.05
2019-03-26T01:18:49.276Z,81.15
2019-03-26T01:19:49.262Z,81.25
2019-03-26T01:20:49.247Z,81.29
2019-03-26T01:21:49.258Z,80.36
2019-03-26T01:22:49.224Z,81.29
2019-03-26T01:23:49.216Z,81.29
2019-03-26T01:24:49.204Z,81.09
2019-03-26T01:25:49.202Z,81.19
2019-03-26T01:26:49.205Z,81.09
2019-03-26T01:27:49.181Z,81.19
2019-03-26T01:28:49.162Z,81.19
2019-03-26T01:29:49.148Z,81.39
2019-03-26T01:30:49.136Z,80.67
2019-03-26T01:31:49.154Z,80.36
2019-03-26T01:32:49.280Z,80.26
2019-03-26T01:33:49.102Z,80.36
2019-03-26T01:34:49.092Z,80.15
2019-03-26T01:35:49.083Z,80.26
2019-03-26T01:36:49.083Z,80.88
2019-03-26T01:37:49.066Z,79.84
2019-03-26T01:38:49.082Z,80.46
2019-03-26T01:39:49.054Z,80.77
2019-03-26T01:40:49.027Z,80.15
2019-03-26T01:41:49.020Z,79.94
2019-03-26T01:42:49.033Z,80.15
2019-03-26T01:43:49.020Z,80.15
2019-03-26T01:44:48.985Z,80.15
2019-03-26T01:45:48.973Z,80.57
2019-03-26T01:46:48.958Z,79.43
2019-03-26T01:47:48.988Z,79.84
2019-03-26T01:48:48.938Z,79.43
2019-03-26T01:49:48.954Z,79.94
2019-03-26T01:50:48.917Z,79.74
2019-03-26T01:51:48.905Z,79.12
2019-03-26T01:52:48.917Z,79.12
2019-03-26T01:53:48.947Z,79.43
2019-03-26T01:54:48.873Z,79.94
2019-03-26T01:55:48.862Z,80.15
2019-03-26T01:56:48.850Z,79.94
2019-03-26T01:57:48.837Z,79.94
2019-03-26T01:58:48.861Z,79.12
2019-03-26T01:59:48.822Z,79.33
2019-03-26T02:00:48.808Z,79.43
2019-03-26T02:01:48.820Z,79.43
2019-03-26T02:02:48.789Z,79.43
2019-03-26T02:03:48.797Z,79.43
2019-03-26T02:04:59.399Z,79.43
2019-03-26T02:05:49.760Z,79.22
2019-03-26T02:06:48.774Z,79.84
2019-03-26T02:07:48.764Z,79.74
2019-03-26T02:08:48.734Z,79.94
2019-03-26T02:09:48.730Z,79.70
2019-03-26T02:10:48.699Z,79.70
2019-03-26T02:11:48.689Z,79.70
2019-03-26T02:12:48.896Z,79.60
2019-03-26T02:13:48.666Z,79.12
2019-03-26T02:14:48.722Z,79.70
2019-03-26T02:15:48.643Z,79.43
2019-03-26T02:16:48.632Z,79.49
2019-03-26T02:17:48.621Z,79.49
2019-03-26T02:18:48.605Z,78.98
2019-03-26T02:19:48.628Z,79.29
2019-03-26T02:20:48.606Z,79.43
2019-03-26T02:21:48.624Z,79.12
2019-03-26T02:22:48.594Z,79.08
2019-03-26T02:23:48.576Z,79.49
2019-03-26T02:24:48.579Z,79.29
2019-03-26T02:25:48.619Z,78.70
2019-03-26T02:26:48.560Z,79.22
2019-03-26T02:27:48.561Z,79.60
2019-03-26T02:28:48.520Z,78.81
2019-03-26T02:29:48.506Z,78.77
2019-03-26T02:30:48.509Z,78.88
2019-03-26T02:31:48.498Z,78.91
2019-03-26T02:32:48.546Z,79.19
2019-03-26T02:33:48.474Z,79.29
2019-03-26T02:34:48.460Z,79.29
2019-03-26T02:35:48.450Z,78.88
2019-03-26T02:36:48.410Z,78.50
2019-03-26T02:37:48.433Z,78.67
2019-03-26T02:38:48.389Z,79.33
2019-03-26T02:39:48.406Z,78.29
2019-03-26T02:40:48.367Z,78.39
2019-03-26T02:41:48.385Z,78.46
2019-03-26T02:42:48.376Z,78.36
2019-03-26T02:43:48.332Z,78.25
2019-03-26T02:44:48.349Z,78.15
2019-03-26T02:45:48.620Z,76.81
2019-03-26T02:46:48.307Z,77.12
2019-03-26T02:47:48.291Z,77.64
2019-03-26T02:48:48.277Z,77.43
2019-03-26T02:49:48.268Z,77.33
2019-03-26T02:50:48.386Z,78.15
2019-03-26T02:51:48.301Z,77.74
2019-03-26T02:52:48.231Z,78.36
2019-03-26T02:53:48.227Z,77.64
2019-03-26T02:54:48.215Z,77.12
2019-03-26T02:55:48.197Z,78.29
2019-03-26T02:56:48.215Z,78.05
2019-03-26T02:57:48.176Z,78.25
2019-03-26T02:58:48.181Z,78.25
2019-03-26T02:59:48.158Z,77.94
2019-03-26T03:04:07.321Z,77.94
2019-03-26T03:05:07.283Z,78.39
2019-03-26T03:06:07.226Z,78.08
2019-03-26T03:07:07.230Z,78.29
2019-03-26T03:08:07.227Z,78.60
2019-03-26T03:09:07.238Z,78.39
2019-03-26T03:10:07.185Z,78.50
2019-03-26T03:11:07.193Z,78.39
2019-03-26T03:12:07.187Z,77.98
2019-03-26T03:13:07.165Z,78.81
2019-03-26T03:14:07.216Z,78.39
2019-03-26T03:15:07.148Z,78.70
2019-03-26T03:16:07.137Z,78.19
2019-03-26T03:17:07.152Z,77.15
2019-03-26T03:18:07.091Z,77.15
2019-03-26T03:19:07.142Z,77.15
2019-03-26T03:20:07.096Z,77.77
2019-03-26T03:21:07.107Z,76.95
2019-03-26T03:22:07.077Z,76.64
2019-03-26T03:23:07.041Z,76.64
2019-03-26T03:24:07.091Z,77.15
2019-03-26T03:25:07.045Z,76.95
2019-03-26T03:26:07.051Z,76.95
2019-03-26T03:27:07.013Z,76.64
2019-03-26T03:28:07.019Z,76.32
2019-03-26T03:29:07.063Z,76.95
2019-03-26T03:30:06.958Z,76.74
2019-03-26T03:31:06.988Z,76.74
2019-03-26T03:32:06.952Z,76.74
2019-03-26T03:33:06.934Z,76.95
2019-03-26T03:34:06.919Z,77.36
2019-03-26T03:35:06.949Z,76.74
2019-03-26T03:36:06.911Z,77.05
2019-03-26T03:37:06.881Z,76.95
2019-03-26T03:38:06.923Z,76.84
2019-03-26T03:39:06.859Z,76.32
2019-03-26T03:40:06.978Z,76.12
2019-03-26T03:41:06.939Z,76.01
2019-03-26T03:42:06.826Z,76.01
2019-03-26T03:43:06.841Z,75.70
2019-03-26T03:44:06.849Z,75.09
2019-03-26T03:45:06.817Z,74.15
2019-03-26T03:46:06.836Z,74.15
2019-03-26T03:47:06.796Z,75.29
2019-03-26T03:48:06.785Z,75.09
2019-03-26T03:49:06.785Z,76.01
2019-03-26T03:50:06.745Z,75.91
2019-03-26T03:51:06.800Z,75.29
2019-03-26T03:52:06.775Z,75.09
2019-03-26T03:53:06.727Z,75.19
2019-03-26T03:54:06.716Z,75.19
2019-03-26T03:55:06.683Z,75.19
2019-03-26T03:56:06.690Z,74.88
2019-03-26T03:57:06.667Z,75.19
2019-03-26T03:58:06.656Z,74.26
2019-03-26T03:59:06.661Z,74.57
2019-03-26T04:00:06.684Z,74.57
2019-03-26T04:01:06.652Z,74.81
2019-03-26T04:02:06.641Z,75.19
2019-03-26T04:03:06.630Z,75.22
2019-03-26T04:04:06.587Z,76.12
2019-03-26T04:05:06.574Z,75.09
2019-03-26T04:06:09.548Z,75.19
2019-03-26T04:07:06.590Z,74.77
2019-03-26T04:08:06.564Z,75.19
2019-03-26T04:09:06.523Z,75.19
2019-03-26T04:10:06.521Z,75.09
2019-03-26T04:11:06.568Z,75.29
2019-03-26T04:12:06.544Z,75.19
2019-03-26T04:13:06.534Z,75.15
2019-03-26T04:14:06.522Z,75.19
2019-03-26T04:15:06.504Z,74.88
2019-03-26T04:16:06.488Z,75.26
2019-03-26T04:17:06.459Z,75.91
2019-03-26T04:18:06.475Z,75.78
2019-03-26T04:19:06.472Z,75.78
2019-03-26T04:20:06.475Z,75.78
2019-03-26T04:21:06.450Z,75.88
2019-03-26T04:22:06.465Z,75.78
2019-03-26T04:23:06.539Z,75.78
2019-03-26T04:24:06.365Z,75.98
2019-03-26T04:25:06.365Z,76.09
2019-03-26T04:26:06.361Z,75.78
2019-03-26T04:27:06.356Z,75.88
2019-03-26T04:28:06.328Z,75.67
2019-03-26T04:29:06.334Z,75.91
2019-03-26T04:30:06.316Z,76.12
2019-03-26T04:31:06.324Z,76.01
2019-03-26T04:32:06.301Z,75.70
2019-03-26T04:33:06.292Z,76.32
2019-03-26T04:34:06.268Z,76.74
2019-03-26T04:35:06.296Z,76.32
2019-03-26T04:36:06.251Z,76.43
2019-03-26T04:37:06.247Z,76.12
2019-03-26T04:38:06.207Z,72.60
2019-03-26T04:39:06.219Z,72.74
2019-03-26T04:40:06.209Z,73.22
2019-03-26T04:41:06.212Z,72.39
2019-03-26T04:42:06.172Z,72.91
2019-03-26T04:43:06.148Z,72.50
2019-03-26T04:44:06.149Z,72.91
2019-03-26T04:45:06.160Z,72.91
2019-03-26T04:46:06.161Z,73.22
2019-03-26T04:47:06.134Z,73.88
2019-03-26T04:48:06.157Z,73.84
2019-03-26T04:49:06.098Z,74.36
2019-03-26T04:50:06.091Z,74.36
2019-03-26T04:51:06.061Z,73.88
2019-03-26T04:52:06.061Z,73.67
2019-03-26T04:53:06.040Z,73.36
2019-03-26T04:54:06.032Z,72.71
2019-03-26T04:55:06.055Z,73.12
2019-03-26T04:56:06.013Z,73.12
2019-03-26T04:57:05.999Z,73.54
2019-03-26T04:58:06.020Z,72.91
2019-03-26T04:59:05.983Z,73.84
2019-03-26T05:00:05.964Z,74.05
2019-03-26T05:01:06.003Z,72.60
2019-03-26T05:02:05.950Z,72.81
2019-03-26T05:03:05.956Z,71.05
2019-03-26T05:04:05.972Z,71.26
2019-03-26T05:05:05.957Z,71.08
2019-03-26T05:06:05.971Z,71.36
2019-03-26T05:07:05.912Z,72.60
2019-03-26T05:08:05.955Z,72.81
2019-03-26T05:09:05.890Z,72.71
2019-03-26T05:10:05.856Z,72.50
2019-03-26T05:11:05.873Z,72.29
2019-03-26T05:12:05.891Z,72.60
2019-03-26T05:13:05.841Z,72.81
2019-03-26T05:14:05.868Z,72.81
2019-03-26T05:15:05.802Z,72.39
2019-03-26T05:16:05.785Z,72.91
2019-03-26T05:17:05.772Z,72.91
2019-03-26T05:18:05.797Z,71.88
2019-03-26T05:19:05.815Z,72.29
2019-03-26T05:20:05.774Z,72.39
2019-03-26T05:21:05.774Z,71.88
2019-03-26T05:22:05.741Z,72.71
2019-03-26T05:23:05.732Z,72.91
2019-03-26T05:24:05.769Z,72.29
2019-03-26T05:25:05.726Z,72.08
2019-03-26T05:26:05.679Z,72.50
2019-03-26T05:27:05.667Z,72.39
2019-03-26T05:28:05.654Z,72.60
2019-03-26T05:29:05.710Z,72.91
2019-03-26T05:30:05.636Z,72.16
2019-03-26T05:31:05.634Z,72.47
2019-03-26T05:32:05.645Z,72.47
2019-03-26T05:33:05.628Z,72.05
2019-03-26T05:34:05.610Z,71.98
2019-03-26T05:35:05.603Z,72.29
2019-03-26T05:36:05.575Z,72.60
2019-03-26T05:37:05.557Z,71.84
2019-03-26T05:38:05.572Z,71.95
2019-03-26T05:39:05.586Z,72.16
2019-03-26T05:40:05.523Z,72.36
2019-03-26T05:41:05.565Z,72.36
2019-03-26T05:42:05.517Z,72.50
2019-03-26T05:43:05.515Z,72.36
2019-03-26T05:44:05.533Z,72.29
2019-03-26T05:45:05.494Z,72.81
2019-03-26T05:46:05.486Z,72.91
2019-03-26T05:47:05.483Z,72.88
2019-03-26T05:48:05.464Z,72.05
2019-03-26T05:49:05.463Z,72.47
2019-03-26T05:50:05.416Z,72.47
2019-03-26T05:51:05.456Z,72.67
2019-03-26T05:52:05.397Z,72.26
2019-03-26T05:53:05.408Z,72.16
2019-03-26T05:54:05.659Z,72.16
2019-03-26T05:55:05.377Z,72.26
2019-03-26T05:56:05.396Z,72.16
2019-03-26T05:57:05.366Z,72.26
2019-03-26T05:58:05.350Z,71.71
2019-03-26T05:59:05.344Z,71.92
2019-03-26T06:00:05.343Z,72.12
2019-03-26T06:01:05.312Z,71.81
2019-03-26T06:02:14.264Z,71.61
2019-03-26T06:03:06.300Z,72.12
2019-03-26T06:04:05.339Z,71.81
2019-03-26T06:05:05.281Z,71.81
2019-03-26T06:06:05.281Z,71.40
2019-03-26T06:07:05.456Z,71.50
2019-03-26T06:08:05.258Z,71.50
2019-03-26T06:09:05.258Z,71.81
2019-03-26T06:10:05.219Z,71.67
2019-03-26T06:11:05.232Z,71.81
2019-03-26T06:12:05.209Z,71.61
2019-03-26T06:13:05.194Z,71.57
2019-03-26T06:14:05.204Z,71.40
2019-03-26T06:15:05.165Z,71.47
2019-03-26T06:16:05.156Z,71.88
2019-03-26T06:17:05.144Z,71.09
2019-03-26T06:18:05.115Z,71.71
2019-03-26T06:19:05.148Z,71.81
2019-03-26T06:20:05.167Z,71.67
2019-03-26T06:21:05.141Z,71.57
2019-03-26T06:22:05.086Z,71.47
2019-03-26T06:23:05.078Z,71.37
2019-03-26T06:24:05.132Z,70.85
2019-03-26T06:25:05.078Z,70.75
2019-03-26T06:26:05.066Z,70.85
2019-03-26T06:27:05.027Z,70.75
2019-03-26T06:28:05.029Z,70.12
2019-03-26T06:29:05.030Z,70.64
2019-03-26T06:30:05.014Z,70.54
2019-03-26T06:31:04.987Z,70.54
2019-03-26T06:32:04.980Z,70.54
2019-03-26T06:33:04.943Z,70.54
2019-03-26T06:34:04.962Z,69.92
2019-03-26T06:35:04.997Z,69.92
2019-03-26T06:36:04.943Z,69.61
2019-03-26T06:37:17.105Z,69.92
2019-03-26T06:38:05.915Z,70.23
2019-03-26T06:39:04.906Z,70.12
2019-03-26T06:40:04.908Z,69.92
2019-03-26T06:41:04.858Z,69.71
2019-03-26T06:42:04.866Z,68.99
2019-03-26T06:43:04.839Z,69.51
2019-03-26T06:44:04.874Z,69.92
2019-03-26T06:45:04.855Z,70.12
2019-03-26T06:46:04.813Z,70.33
2019-03-26T06:47:04.796Z,70.23
2019-03-26T06:48:04.826Z,69.82
2019-03-26T06:49:04.784Z,70.12
2019-03-26T06:50:04.757Z,70.43
2019-03-26T06:51:04.777Z,70.33
2019-03-26T06:52:04.742Z,70.33
2019-03-26T06:53:04.752Z,70.12
2019-03-26T06:54:04.723Z,69.71
2019-03-26T06:55:04.750Z,70.54
2019-03-26T06:56:04.789Z,70.85
2019-03-26T06:57:04.695Z,71.06
2019-03-26T06:58:04.693Z,71.88
2019-03-26T06:59:04.664Z,71.47
2019-03-26T07:00:06.980Z,72.61
2019-03-26T07:01:04.654Z,72.50
2019-03-26T07:02:04.633Z,72.81
2019-03-26T07:03:04.622Z,71.88
2019-03-26T07:04:04.604Z,71.88
2019-03-26T07:05:04.629Z,72.61
2019-03-26T07:06:04.639Z,72.50
2019-03-26T07:07:04.600Z,72.61
2019-03-26T07:08:04.597Z,72.40
2019-03-26T07:09:04.586Z,72.40
2019-03-26T07:10:04.568Z,72.71
2019-03-26T07:11:04.563Z,72.61
2019-03-26T07:12:07.607Z,72.81
2019-03-26T07:13:04.533Z,72.78
2019-03-26T07:14:04.584Z,72.16
2019-03-26T07:15:04.512Z,72.57
2019-03-26T07:16:04.524Z,72.47
2019-03-26T07:17:04.474Z,72.26
2019-03-26T07:18:04.483Z,71.95
2019-03-26T07:19:04.504Z,71.64
2019-03-26T07:20:04.472Z,72.06
2019-03-26T07:21:04.457Z,72.26
2019-03-26T07:22:04.424Z,72.47
2019-03-26T07:23:04.426Z,72.02
2019-03-26T07:24:04.394Z,71.75
2019-03-26T07:25:04.403Z,71.30
2019-03-26T07:26:04.417Z,71.41
2019-03-26T07:27:04.363Z,71.71
2019-03-26T07:28:04.354Z,71.20
2019-03-26T07:29:04.348Z,71.41
2019-03-26T07:30:04.330Z,72.02
2019-03-26T07:31:04.339Z,71.41
2019-03-26T07:32:04.311Z,71.61
2019-03-26T07:33:04.323Z,71.41
2019-03-26T07:34:07.121Z,71.78
2019-03-26T07:35:04.283Z,71.26
2019-03-26T07:36:04.293Z,71.58
2019-03-26T07:37:04.336Z,71.47
2019-03-26T07:38:04.316Z,71.78
2019-03-26T07:39:04.272Z,71.68
2019-03-26T07:40:04.248Z,71.68
2019-03-26T07:41:04.368Z,70.62
2019-03-26T07:42:04.224Z,71.06
2019-03-26T07:43:04.190Z,70.75
2019-03-26T07:44:04.184Z,70.72
2019-03-26T07:45:04.203Z,70.72
2019-03-26T07:46:04.155Z,70.62
2019-03-26T07:47:04.191Z,70.34
2019-03-26T07:48:04.138Z,70.20
2019-03-26T07:49:04.134Z,70.62
2019-03-26T07:50:04.117Z,70.41
2019-03-26T07:51:04.128Z,70.20
2019-03-26T07:52:04.096Z,69.59
2019-03-26T07:53:04.091Z,69.59
2019-03-26T07:54:04.091Z,69.79
2019-03-26T07:55:04.106Z,69.69
2019-03-26T07:56:04.071Z,69.79
2019-03-26T07:57:04.036Z,69.38
2019-03-26T07:58:04.062Z,69.48
2019-03-26T07:59:04.146Z,68.93
2019-03-26T08:00:04.002Z,69.24
2019-03-26T08:01:04.007Z,69.48
2019-03-26T08:02:04.033Z,69.48
2019-03-26T08:03:03.970Z,69.69
2019-03-26T08:04:03.985Z,69.27
2019-03-26T08:05:03.993Z,69.59
2019-03-26T08:06:03.962Z,69.89
2019-03-26T08:07:03.966Z,69.35
2019-03-26T08:08:03.920Z,69.04
2019-03-26T08:09:03.929Z,69.11
2019-03-26T08:10:03.895Z,67.49
2019-03-26T08:11:03.923Z,67.39
2019-03-26T08:12:03.935Z,68.21
2019-03-26T08:13:03.869Z,68.73
2019-03-26T08:14:03.847Z,68.01
2019-03-26T08:15:03.948Z,67.80
2019-03-26T08:16:03.892Z,67.80
2019-03-26T08:17:03.855Z,67.60
2019-03-26T08:18:03.861Z,67.15
2019-03-26T08:19:03.818Z,66.43
2019-03-26T08:20:03.801Z,67.60
2019-03-26T08:21:03.790Z,68.08
2019-03-26T08:22:03.809Z,68.29
2019-03-26T08:23:03.761Z,67.66
2019-03-26T08:24:03.749Z,65.92
2019-03-26T08:25:03.766Z,66.53
2019-03-26T08:26:03.792Z,66.84
2019-03-26T08:27:03.747Z,66.43
2019-03-26T08:28:05.212Z,66.12
2019-03-26T08:29:03.679Z,66.33
2019-03-26T08:30:03.680Z,66.53
2019-03-26T08:31:03.684Z,66.43
2019-03-26T08:32:03.637Z,66.22
2019-03-26T08:33:03.631Z,66.61
2019-03-26T08:34:03.716Z,66.30
2019-03-26T08:35:03.637Z,66.61
2019-03-26T08:36:03.598Z,66.40
2019-03-26T08:37:03.598Z,66.37
2019-03-26T08:38:12.287Z,66.09
2019-03-26T08:39:04.615Z,66.37
2019-03-26T08:40:03.591Z,65.95
2019-03-26T08:41:03.573Z,64.93
2019-03-26T08:42:03.555Z,65.52
2019-03-26T08:43:03.540Z,65.52
2019-03-26T08:44:03.532Z,65.52
2019-03-26T08:45:03.523Z,65.83
2019-03-26T08:46:03.521Z,65.83
2019-03-26T08:47:03.503Z,65.28
2019-03-26T08:48:03.466Z,65.41
2019-03-26T08:49:03.478Z,65.31
2019-03-26T08:50:03.467Z,65.69
2019-03-26T08:51:03.711Z,65.28
2019-03-26T08:52:03.443Z,64.97
2019-03-26T08:53:03.403Z,65.28
2019-03-26T08:54:03.407Z,65.38
2019-03-26T08:55:04.434Z,65.38
2019-03-26T08:56:03.392Z,65.28
2019-03-26T08:57:03.445Z,65.69
2019-03-26T08:58:03.382Z,65.41
2019-03-26T08:59:03.372Z,66.03
2019-03-26T09:00:03.358Z,65.72
2019-03-26T09:01:03.324Z,65.83
2019-03-26T09:02:03.377Z,66.34
2019-03-26T09:03:03.327Z,67.16
2019-03-26T09:04:03.342Z,67.47
2019-03-26T09:05:03.327Z,67.47
2019-03-26T09:06:03.308Z,67.68
2019-03-26T09:07:03.347Z,67.47
2019-03-26T09:08:03.264Z,67.88
2019-03-26T09:09:03.250Z,67.30
2019-03-26T09:10:03.262Z,67.50
2019-03-26T09:11:03.282Z,67.94
2019-03-26T09:12:03.256Z,68.56
2019-03-26T09:13:03.219Z,68.46
2019-03-26T09:14:03.218Z,68.87
2019-03-26T09:15:03.191Z,69.18
2019-03-26T09:16:03.178Z,68.87
2019-03-26T09:17:03.190Z,69.07
2019-03-26T09:18:03.157Z,69.28
2019-03-26T09:19:03.148Z,69.31
2019-03-26T09:20:03.111Z,70.04
2019-03-26T09:21:03.112Z,70.10
2019-03-26T09:22:03.177Z,70.65
2019-03-26T09:23:03.077Z,70.31
2019-03-26T09:24:03.077Z,70.21
2019-03-26T09:25:03.055Z,70.45
2019-03-26T09:26:03.044Z,70.31
2019-03-26T09:27:03.035Z,71.17
2019-03-26T09:28:03.086Z,71.24
2019-03-26T09:29:03.019Z,71.27
2019-03-26T09:30:03.007Z,71.37
2019-03-26T09:31:03.012Z,71.55
2019-03-26T09:32:02.996Z,71.89
2019-03-26T09:33:02.967Z,71.86
2019-03-26T09:34:02.984Z,72.30
2019-03-26T09:35:02.949Z,72.47
2019-03-26T09:36:02.935Z,72.20
2019-03-26T09:37:02.928Z,72.09
2019-03-26T09:38:02.941Z,72.16
2019-03-26T09:39:02.911Z,72.47
2019-03-26T09:40:02.886Z,71.86
2019-03-26T09:41:02.875Z,71.86
2019-03-26T09:42:02.872Z,71.96
2019-03-26T09:43:02.891Z,71.96
2019-03-26T09:44:02.880Z,71.24
2019-03-26T09:45:02.844Z,71.34
2019-03-26T09:46:02.840Z,71.65
2019-03-26T09:47:15.178Z,71.03
2019-03-26T09:48:03.822Z,71.20
2019-03-26T09:49:02.794Z,71.20
2019-03-26T09:50:02.779Z,71.41
2019-03-26T09:51:02.773Z,71.00
2019-03-26T09:52:02.758Z,70.38
2019-03-26T09:53:02.797Z,70.28
2019-03-26T09:54:02.772Z,70.28
2019-03-26T09:55:02.726Z,69.84
2019-03-26T09:56:02.740Z,70.18
2019-03-26T09:57:02.701Z,70.07
2019-03-26T09:58:02.760Z,70.28
2019-03-26T09:59:02.698Z,70.59
2019-03-26T10:00:02.677Z,70.45
2019-03-26T10:01:02.668Z,71.10
2019-03-26T10:02:02.679Z,71.51
2019-03-26T10:03:02.665Z,71.31
2019-03-26T10:04:02.651Z,71.31
2019-03-26T10:05:02.611Z,71.51
2019-03-26T10:06:02.604Z,71.51
2019-03-26T10:07:02.595Z,71.41
2019-03-26T10:08:02.659Z,71.00
2019-03-26T10:09:02.575Z,70.48
2019-03-26T10:10:02.619Z,71.41
2019-03-26T10:11:02.580Z,71.00
2019-03-26T10:12:02.565Z,71.20
2019-03-26T10:13:02.527Z,71.07
2019-03-26T10:14:02.541Z,70.66
2019-03-26T10:15:02.504Z,70.56
2019-03-26T10:16:02.497Z,70.14
2019-03-26T10:17:02.495Z,70.35
2019-03-26T10:18:02.516Z,70.45
2019-03-26T10:19:02.461Z,70.21
2019-03-26T10:20:02.449Z,70.52
2019-03-26T10:21:02.440Z,70.62
2019-03-26T10:22:02.425Z,69.90
2019-03-26T10:23:02.497Z,70.01
2019-03-26T10:24:02.440Z,69.29
2019-03-26T10:25:02.423Z,69.09
2019-03-26T10:26:02.404Z,69.26
2019-03-26T10:27:02.456Z,69.36
2019-03-26T10:28:02.425Z,69.36
2019-03-26T10:29:18.696Z,69.26
2019-03-26T10:30:05.819Z,69.36
2019-03-26T10:31:02.372Z,69.05
2019-03-26T10:32:02.321Z,69.05
2019-03-26T10:33:02.309Z,69.15
2019-03-26T10:34:02.302Z,68.95
2019-03-26T10:35:02.313Z,68.95
2019-03-26T10:36:02.309Z,69.23
2019-03-26T10:37:02.285Z,68.61
2019-03-26T10:38:02.282Z,68.30
2019-03-26T10:39:05.498Z,68.10
2019-03-26T10:40:02.235Z,67.55
2019-03-26T10:41:02.241Z,68.06
2019-03-26T10:42:02.208Z,68.57
2019-03-26T10:43:02.193Z,68.51
2019-03-26T10:44:02.260Z,67.76
2019-03-26T10:45:02.171Z,67.44
2019-03-26T10:46:02.218Z,67.89
2019-03-26T10:47:02.182Z,67.76
2019-03-26T10:48:02.206Z,67.35
2019-03-26T10:49:02.127Z,67.35
2019-03-26T10:50:02.164Z,66.83
2019-03-26T10:51:02.137Z,67.38
2019-03-26T10:52:02.124Z,67.44
2019-03-26T10:53:02.115Z,66.63
2019-03-26T10:54:02.130Z,67.86
2019-03-26T10:55:02.088Z,67.62
2019-03-26T10:56:02.085Z,68.03
2019-03-26T10:57:02.062Z,67.11
2019-03-26T10:58:02.076Z,66.08
2019-03-26T10:59:04.192Z,65.88
2019-03-26T11:00:02.041Z,66.39
2019-03-26T11:01:02.019Z,66.49
2019-03-26T11:02:02.017Z,65.98
2019-03-26T11:03:01.973Z,65.64
2019-03-26T11:04:01.989Z,65.64
2019-03-26T11:05:01.952Z,65.12
2019-03-26T11:06:01.941Z,65.33
2019-03-26T11:07:01.933Z,64.82
2019-03-26T11:08:01.916Z,64.72
2019-03-26T11:09:01.973Z,65.12
2019-03-26T11:10:01.894Z,64.95
2019-03-26T11:11:01.885Z,65.36
2019-03-26T11:12:01.895Z,64.85
2019-03-26T11:13:01.882Z,65.47
2019-03-26T11:14:01.862Z,65.09
2019-03-26T11:15:01.898Z,65.60
2019-03-26T11:16:01.830Z,65.91
2019-03-26T11:17:01.823Z,65.60
2019-03-26T11:18:01.838Z,66.01
2019-03-26T11:19:01.820Z,66.63
2019-03-26T11:20:01.803Z,66.22
2019-03-26T11:21:03.202Z,67.38
2019-03-26T11:22:01.794Z,67.48
2019-03-26T11:23:01.776Z,67.58
2019-03-26T11:24:01.769Z,68.40
2019-03-26T11:25:01.738Z,68.51
2019-03-26T11:26:01.763Z,68.40
2019-03-26T11:27:01.705Z,68.40
2019-03-26T11:28:01.726Z,68.30
2019-03-26T11:29:01.714Z,69.02
2019-03-26T11:30:01.700Z,68.33
2019-03-26T11:31:01.670Z,68.95
2019-03-26T11:32:01.699Z,69.43
2019-03-26T11:33:01.646Z,69.56
2019-03-26T11:34:01.793Z,70.04
2019-03-26T11:35:01.645Z,70.25
2019-03-26T11:36:01.631Z,69.64
2019-03-26T11:37:01.623Z,69.84
2019-03-26T11:38:01.641Z,69.91
2019-03-26T11:39:01.626Z,69.91
2019-03-26T11:40:01.585Z,69.29
2019-03-26T11:41:01.584Z,69.84
2019-03-26T11:42:01.590Z,69.81
2019-03-26T11:43:01.582Z,70.32
2019-03-26T11:44:04.543Z,71.35
2019-03-26T11:45:01.699Z,71.86
2019-03-26T11:46:01.523Z,71.97
2019-03-26T11:47:01.483Z,73.85
2019-03-26T11:48:01.502Z,74.05
2019-03-26T11:49:01.515Z,75.42
2019-03-26T11:50:04.596Z,75.52
2019-03-26T11:51:01.442Z,75.42
2019-03-26T11:52:01.432Z,75.56
2019-03-26T11:53:01.417Z,76.38
2019-03-26T11:54:01.452Z,77.92
2019-03-26T11:55:01.402Z,76.62
2019-03-26T11:56:01.383Z,77.75
2019-03-26T11:57:01.401Z,78.78
2019-03-26T11:58:01.417Z,79.16
2019-03-26T11:59:01.414Z,78.68
2019-03-26T12:00:01.369Z,78.99
2019-03-26T12:01:01.375Z,79.30
2019-03-26T12:02:01.349Z,78.58
2019-03-26T12:03:01.341Z,79.91
2019-03-26T12:04:01.471Z,79.09
2019-03-26T12:05:01.291Z,79.19
2019-03-26T12:06:01.314Z,80.29
2019-03-26T12:07:01.269Z,80.08
2019-03-26T12:08:01.252Z,79.36
2019-03-26T12:09:01.319Z,78.96
2019-03-26T12:10:01.283Z,79.05
2019-03-26T12:11:01.240Z,79.16
2019-03-26T12:12:01.229Z,78.81
2019-03-26T12:13:01.197Z,78.81
2019-03-26T12:14:01.222Z,78.81
2019-03-26T12:15:01.222Z,77.89
2019-03-26T12:16:01.198Z,78.30
2019-03-26T12:17:01.154Z,77.75
2019-03-26T12:18:01.157Z,77.55
2019-03-26T12:19:01.132Z,77.65
2019-03-26T12:20:01.122Z,77.75
2019-03-26T12:21:01.132Z,76.28
2019-03-26T12:22:01.106Z,76.58
2019-03-26T12:23:01.087Z,76.38
2019-03-26T12:24:01.104Z,75.25
2019-03-26T12:25:01.065Z,75.66
2019-03-26T12:26:01.057Z,75.45
2019-03-26T12:27:01.068Z,75.76
2019-03-26T12:28:01.048Z,76.38
2019-03-26T12:29:01.075Z,77.00
2019-03-26T12:30:01.047Z,76.07
2019-03-26T12:31:01.021Z,75.25
2019-03-26T12:32:00.988Z,76.68
2019-03-26T12:33:00.995Z,75.08
2019-03-26T12:34:00.972Z,75.59
2019-03-26T12:35:00.978Z,75.90
2019-03-26T12:36:00.981Z,76.21
2019-03-26T12:37:00.936Z,76.55
2019-03-26T12:38:00.952Z,76.82
2019-03-26T12:39:00.921Z,76.93
2019-03-26T12:40:01.183Z,75.21
2019-03-26T12:41:00.913Z,76.04
2019-03-26T12:42:00.930Z,76.55
2019-03-26T12:43:00.866Z,76.10
2019-03-26T12:44:00.863Z,76.21
2019-03-26T12:45:00.872Z,76.10
2019-03-26T12:46:02.053Z,76.62
2019-03-26T12:47:00.827Z,75.59
2019-03-26T12:48:00.871Z,75.52
2019-03-26T12:49:00.819Z,75.83
2019-03-26T12:50:00.813Z,77.75
2019-03-26T12:51:00.779Z,76.93
2019-03-26T12:52:00.766Z,77.65
2019-03-26T12:53:00.764Z,76.51
2019-03-26T12:54:00.769Z,77.58
2019-03-26T12:55:00.782Z,76.04
2019-03-26T12:56:00.802Z,76.45